createdAt,value
2022-12-16T00:00:37.789Z,99953.52
2022-12-16T00:03:25.104Z,99955.96
2022-12-16T00:05:55.491Z,99960.05
2022-12-16T00:08:23.891Z,99959.13
2022-12-16T00:10:59.303Z,99953.67
2022-12-16T00:13:28.944Z,99951.64
2022-12-16T00:15:58.258Z,99950.05
2022-12-16T00:18:27.151Z,99955.45
2022-12-16T00:20:56.240Z,99957.85
2022-12-16T00:23:24.594Z,99957.32
2022-12-16T00:25:53.332Z,99965.73
2022-12-16T00:28:25.334Z,99969.46
2022-12-16T00:30:56.183Z,99967.82
2022-12-16T00:33:26.995Z,99967.45
2022-12-16T00:35:56.612Z,99973.94
2022-12-16T00:38:27.300Z,99975.70
2022-12-16T00:40:55.835Z,99975.98
2022-12-16T00:43:24.331Z,99982.11
2022-12-16T00:45:52.812Z,99989.27
2022-12-16T00:48:24.015Z,99989.02
2022-12-16T00:50:55.870Z,99993.30
2022-12-16T00:53:25.950Z,99988.99
2022-12-16T00:56:09.676Z,99990.88
2022-12-16T00:59:02.739Z,99987.64
2022-12-16T01:01:31.394Z,99985.87
2022-12-16T01:04:00.007Z,99985.83
2022-12-16T01:06:28.418Z,99982.11
2022-12-16T01:08:56.736Z,99983.87
2022-12-16T01:11:25.090Z,99978.40
2022-12-16T01:13:55.285Z,99975.84
2022-12-16T01:16:23.907Z,99969.69
2022-12-16T01:18:52.373Z,99969.23
2022-12-16T01:21:20.714Z,99968.38
2022-12-16T01:23:48.967Z,99968.36
2022-12-16T01:26:18.977Z,99964.45
2022-12-16T01:28:50.572Z,99960.99
2022-12-16T01:31:20.812Z,99950.06
2022-12-16T01:33:49.450Z,99943.79
2022-12-16T01:36:18.005Z,99941.44
2022-12-16T01:38:47.017Z,99942.01
2022-12-16T01:41:17.362Z,99946.02
2022-12-16T01:43:46.831Z,99943.23
2022-12-16T01:46:15.188Z,99939.80
2022-12-16T01:48:54.586Z,99942.70
2022-12-16T01:51:31.168Z,99948.15
2022-12-16T01:54:08.185Z,99950.88
2022-12-16T01:56:40.250Z,99944.90
2022-12-16T01:59:36.260Z,99944.83
2022-12-16T02:02:05.679Z,99942.10
2022-12-16T02:04:34.227Z,99941.27
2022-12-16T02:07:02.607Z,99934.84
2022-12-16T02:09:31.012Z,99929.89
2022-12-16T02:12:17.717Z,99929.90
2022-12-16T02:15:08.785Z,99933.81
2022-12-16T02:18:06.232Z,99933.06
2022-12-16T02:21:08.732Z,99931.10
2022-12-16T02:23:39.694Z,99925.98
2022-12-16T02:26:36.928Z,99919.15
2022-12-16T02:29:23.191Z,99910.20
2022-12-16T02:32:03.320Z,99900.98
2022-12-16T02:34:47.424Z,99899.73
2022-12-16T02:37:34.347Z,99897.27
2022-12-16T02:40:08.547Z,99894.98
2022-12-16T02:42:47.776Z,99903.42
2022-12-16T02:45:25.705Z,99906.02
2022-12-16T02:47:54.064Z,99906.11
2022-12-16T02:50:39.910Z,99903.73
2022-12-16T02:53:10.114Z,99901.86
2022-12-16T02:56:21.364Z,99902.38
2022-12-16T02:59:52.397Z,99899.81
2022-12-16T03:02:54.442Z,99893.69
2022-12-16T03:05:57.094Z,99891.20
2022-12-16T03:08:39.782Z,99886.84
2022-12-16T03:11:08.631Z,99888.59
2022-12-16T03:13:45.167Z,99886.94
2022-12-16T03:16:16.681Z,99880.62
2022-12-16T03:18:50.715Z,99875.95
2022-12-16T03:21:22.779Z,99872.55
2022-12-16T03:23:58.885Z,99874.45
2022-12-16T03:26:51.951Z,99873.38
2022-12-16T03:32:56.235Z,99869.41
2022-12-16T03:35:43.035Z,99869.37
2022-12-16T03:38:14.694Z,99862.84
2022-12-16T03:40:45.077Z,99862.44
2022-12-16T03:43:15.761Z,99864.97
2022-12-16T03:45:48.405Z,99869.25
2022-12-16T03:48:19.209Z,99868.65
2022-12-16T03:50:47.598Z,99860.89
2022-12-16T03:53:15.891Z,99857.14
2022-12-16T03:55:44.676Z,99857.61
2022-12-16T03:58:12.919Z,99860.41
2022-12-16T04:00:41.468Z,99855.66
2022-12-16T04:03:10.046Z,99856.14
2022-12-16T04:05:38.896Z,99858.77
2022-12-16T04:08:07.338Z,99857.75
2022-12-16T04:10:54.175Z,99851.74
2022-12-16T04:13:42.412Z,99850.64
2022-12-16T04:16:35.207Z,99852.52
2022-12-16T04:19:22.477Z,99857.27
2022-12-16T04:22:09.922Z,99861.88
2022-12-16T04:24:38.718Z,99863.98
2022-12-16T04:27:25.207Z,99866.82
2022-12-16T04:30:13.129Z,99864.62
2022-12-16T04:33:00.701Z,99861.63
2022-12-16T04:35:48.250Z,99861.93
2022-12-16T04:38:35.516Z,99860.23
2022-12-16T04:41:22.829Z,99855.99
2022-12-16T04:44:10.368Z,99855.20
2022-12-16T04:46:57.726Z,99844.09
2022-12-16T04:49:44.665Z,99846.52
2022-12-16T04:52:32.656Z,99850.31
2022-12-16T04:55:19.759Z,99846.33
2022-12-16T04:58:15.511Z,99852.45
2022-12-16T05:01:46.647Z,99851.13
2022-12-16T05:04:33.689Z,99845.55
2022-12-16T05:07:20.968Z,99852.40
2022-12-16T05:10:08.240Z,99852.16
2022-12-16T05:12:55.516Z,99853.02
2022-12-16T05:15:42.404Z,99858.26
2022-12-16T05:18:32.207Z,99865.98
2022-12-16T05:21:21.168Z,99870.83
2022-12-16T05:24:08.291Z,99877.54
2022-12-16T05:26:55.382Z,99879.46
2022-12-16T05:29:42.429Z,99877.48
2022-12-16T05:32:29.262Z,99882.10
2022-12-16T05:35:16.466Z,99887.58
2022-12-16T05:38:03.923Z,99893.70
2022-12-16T05:40:50.978Z,99892.63
2022-12-16T05:43:37.779Z,99893.84
2022-12-16T05:46:25.381Z,99897.93
2022-12-16T05:49:29.334Z,99903.98
2022-12-16T05:52:16.410Z,99900.45
2022-12-16T05:55:03.351Z,99906.13
2022-12-16T05:57:50.320Z,99910.78
2022-12-16T06:01:02.738Z,99913.02
2022-12-16T06:03:49.673Z,99915.55
2022-12-16T06:06:36.781Z,99921.83
2022-12-16T06:09:24.268Z,99930.14
2022-12-16T06:12:11.272Z,99935.43
2022-12-16T06:14:58.385Z,99941.11
2022-12-16T06:17:45.333Z,99940.54
2022-12-16T06:20:32.542Z,99945.02
2022-12-16T06:23:24.000Z,99945.13
2022-12-16T06:26:12.808Z,99943.06
2022-12-16T06:28:59.657Z,99946.79
2022-12-16T06:31:46.645Z,99951.95
2022-12-16T06:34:36.258Z,99954.75
2022-12-16T06:37:23.424Z,99953.66
2022-12-16T06:40:10.315Z,99954.06
2022-12-16T06:43:00.920Z,99948.83
2022-12-16T06:45:48.161Z,99953.80
2022-12-16T06:48:35.161Z,99947.48
2022-12-16T06:51:21.902Z,99949.52
2022-12-16T06:54:08.919Z,99947.41
2022-12-16T06:56:55.936Z,99951.98
2022-12-16T06:59:42.879Z,99955.15
2022-12-16T07:02:30.945Z,99955.09
2022-12-16T07:05:18.381Z,99957.11
2022-12-16T07:08:10.122Z,99958.99
2022-12-16T07:11:06.127Z,99958.26
2022-12-16T07:14:10.195Z,99955.23
2022-12-16T07:16:57.119Z,99956.60
2022-12-16T07:19:44.105Z,99961.52
2022-12-16T07:22:31.089Z,99961.83
2022-12-16T07:25:18.233Z,99965.86
2022-12-16T07:28:09.461Z,99972.91
2022-12-16T07:31:02.680Z,99975.70
2022-12-16T07:33:49.622Z,99975.67
2022-12-16T07:36:36.850Z,99976.48
2022-12-16T07:39:23.744Z,99979.55
2022-12-16T07:42:10.480Z,99983.48
2022-12-16T07:44:57.547Z,99984.73
2022-12-16T07:47:44.314Z,99990.38
2022-12-16T07:50:31.790Z,99992.45
2022-12-16T07:53:19.708Z,99993.38
2022-12-16T07:56:06.983Z,99992.58
2022-12-16T07:58:54.021Z,99989.61
2022-12-16T08:01:42.405Z,99992.26
2022-12-16T08:04:29.395Z,99994.07
2022-12-16T08:07:16.800Z,99991.64
2022-12-16T08:10:03.631Z,99991.39
2022-12-16T08:12:50.551Z,99983.70
2022-12-16T08:15:38.059Z,99986.65
2022-12-16T08:18:25.653Z,99986.66
2022-12-16T08:21:13.068Z,99985.90
2022-12-16T08:23:59.964Z,99989.73
2022-12-16T08:26:47.042Z,99990.66
2022-12-16T08:29:49.197Z,99985.83
2022-12-16T08:32:36.575Z,99982.31
2022-12-16T08:35:24.021Z,99982.28
2022-12-16T08:38:15.302Z,99985.69
2022-12-16T08:41:03.911Z,99985.71
2022-12-16T08:43:52.864Z,99982.72
2022-12-16T08:46:40.068Z,99982.46
2022-12-16T08:49:26.908Z,99985.10
2022-12-16T08:52:14.177Z,99979.78
2022-12-16T08:55:01.235Z,99981.59
2022-12-16T08:57:48.675Z,99983.19
2022-12-16T09:00:37.080Z,99983.27
2022-12-16T09:03:24.101Z,99979.84
2022-12-16T09:06:11.232Z,99979.61
2022-12-16T09:08:58.605Z,99980.57
2022-12-16T09:11:46.069Z,99977.94
2022-12-16T09:14:33.252Z,99978.83
2022-12-16T09:17:20.284Z,99978.20
2022-12-16T09:20:07.341Z,99980.48
2022-12-16T09:22:54.252Z,99974.98
2022-12-16T09:25:42.366Z,99965.89
2022-12-16T09:28:29.689Z,99960.70
2022-12-16T09:31:16.743Z,99964.33
2022-12-16T09:34:03.759Z,99960.15
2022-12-16T09:36:50.949Z,99962.24
2022-12-16T09:39:38.261Z,99953.30
2022-12-16T09:42:30.639Z,99958.88
2022-12-16T09:45:38.742Z,99956.50
2022-12-16T09:48:38.879Z,99953.67
2022-12-16T09:51:27.215Z,99947.97
2022-12-16T09:54:15.793Z,99946.73
2022-12-16T09:57:04.393Z,99947.30
2022-12-16T09:59:59.779Z,99953.77
2022-12-16T10:02:47.052Z,99956.48
2022-12-16T10:05:41.743Z,99951.99
2022-12-16T10:08:44.169Z,99949.36
2022-12-16T10:11:56.540Z,99950.42
2022-12-16T10:14:55.427Z,99950.63
2022-12-16T10:17:45.178Z,99954.75
2022-12-16T10:21:01.443Z,99959.50
2022-12-16T10:23:56.647Z,99963.39
2022-12-16T10:27:00.760Z,99966.89
2022-12-16T10:29:51.784Z,99973.84
2022-12-16T10:33:06.814Z,99977.26
2022-12-16T10:36:11.826Z,99982.58
2022-12-16T10:39:07.665Z,99992.63
2022-12-16T10:41:58.715Z,99994.02
2022-12-16T10:44:53.163Z,99997.23
2022-12-16T10:47:43.196Z,99997.60
2022-12-16T10:50:35.043Z,99997.46
2022-12-16T10:53:29.683Z,99992.21
2022-12-16T10:56:38.673Z,99991.38
2022-12-16T10:59:28.217Z,99989.00
2022-12-16T11:02:35.860Z,99987.49
2022-12-16T11:05:41.764Z,99982.90
2022-12-16T11:08:55.819Z,99982.88
2022-12-16T11:11:45.960Z,99982.16
2022-12-16T11:14:37.763Z,99983.69
2022-12-16T11:17:45.581Z,99981.34
2022-12-16T11:20:34.925Z,99982.04
2022-12-16T11:23:42.301Z,99982.02
2022-12-16T11:26:38.217Z,99984.33
2022-12-16T11:29:32.840Z,99987.20
2022-12-16T11:32:21.773Z,99995.71
2022-12-16T11:35:13.735Z,99998.05
2022-12-16T11:38:02.206Z,100000.27
2022-12-16T11:40:50.479Z,100003.48
2022-12-16T11:43:40.046Z,100003.83
2022-12-16T11:46:38.253Z,100001.10
2022-12-16T11:49:32.742Z,100006.02
2022-12-16T11:52:38.199Z,100011.58
2022-12-16T11:59:06.748Z,100012.77
2022-12-16T12:02:17.097Z,100014.10
2022-12-16T12:05:09.395Z,100019.08
2022-12-16T12:08:37.609Z,100025.77
2022-12-16T12:11:51.500Z,100029.66
2022-12-16T12:14:38.527Z,100027.66
2022-12-16T12:17:44.071Z,100028.85
2022-12-16T12:21:06.122Z,100032.41
2022-12-16T12:24:35.118Z,100039.20
2022-12-16T12:27:31.969Z,100039.90
2022-12-16T12:30:33.935Z,100045.52
2022-12-16T12:33:57.033Z,100044.66
2022-12-16T12:37:08.192Z,100041.42
2022-12-16T12:40:05.832Z,100037.02
2022-12-16T12:43:09.884Z,100035.25
2022-12-16T12:46:13.974Z,100037.42
2022-12-16T12:49:13.513Z,100040.18
2022-12-16T12:52:18.421Z,100045.91
2022-12-16T12:55:05.549Z,100044.66
2022-12-16T12:57:57.477Z,100043.84
2022-12-16T13:00:48.108Z,100045.20
2022-12-16T13:03:58.489Z,100046.25
2022-12-16T13:06:46.575Z,100049.96
2022-12-16T13:09:48.950Z,100062.30
2022-12-16T13:12:41.055Z,100064.02
2022-12-16T13:15:50.075Z,100067.95
2022-12-16T13:18:44.675Z,100073.81
2022-12-16T13:21:56.838Z,100079.75
2022-12-16T13:25:11.008Z,100082.27
2022-12-16T13:28:08.790Z,100083.61
2022-12-16T13:30:56.455Z,100083.52
2022-12-16T13:33:43.621Z,100086.41
2022-12-16T13:36:32.509Z,100090.66
2022-12-16T13:39:40.425Z,100087.54
2022-12-16T13:43:13.986Z,100091.50
2022-12-16T13:46:24.343Z,100090.52
2022-12-16T13:49:12.021Z,100092.59
2022-12-16T13:51:59.071Z,100090.85
2022-12-16T13:55:04.119Z,100089.41
2022-12-16T13:57:58.265Z,100088.35
2022-12-16T14:00:48.302Z,100092.67
2022-12-16T14:03:46.775Z,100094.31
2022-12-16T14:06:42.012Z,100089.55
2022-12-16T14:09:51.653Z,100093.73
2022-12-16T14:13:18.467Z,100099.73
2022-12-16T14:16:10.669Z,100102.02
2022-12-16T14:19:24.245Z,100104.03
2022-12-16T14:22:23.028Z,100099.87
2022-12-16T14:25:09.936Z,100108.98
2022-12-16T14:27:57.113Z,100114.52
2022-12-16T14:30:45.510Z,100120.10
2022-12-16T14:33:47.037Z,100120.45
2022-12-16T14:36:58.398Z,100123.95
2022-12-16T14:39:55.287Z,100129.92
2022-12-16T14:42:48.647Z,100135.28
2022-12-16T14:45:54.046Z,100137.45
2022-12-16T14:48:59.897Z,100139.60
2022-12-16T14:51:50.074Z,100142.75
2022-12-16T14:54:45.838Z,100141.19
2022-12-16T14:57:39.368Z,100144.74
2022-12-16T15:00:26.748Z,100144.02
2022-12-16T15:03:15.367Z,100147.54
2022-12-16T15:06:03.624Z,100148.67
2022-12-16T15:08:56.175Z,100148.83
2022-12-16T15:11:44.428Z,100153.02
2022-12-16T15:14:37.929Z,100149.78
2022-12-16T15:17:25.710Z,100156.03
2022-12-16T15:20:13.544Z,100161.77
2022-12-16T15:23:07.238Z,100166.45
2022-12-16T15:25:56.965Z,100170.30
2022-12-16T15:29:07.056Z,100173.46
2022-12-16T15:32:02.666Z,100178.17
2022-12-16T15:35:12.571Z,100178.14
2022-12-16T15:38:04.565Z,100184.48
2022-12-16T15:40:57.501Z,100189.16
2022-12-16T15:43:57.306Z,100194.02
2022-12-16T15:46:47.801Z,100198.35
2022-12-16T15:50:03.628Z,100202.84
2022-12-16T15:52:51.611Z,100203.42
2022-12-16T15:55:43.426Z,100208.13
2022-12-16T15:58:57.354Z,100210.29
2022-12-16T16:01:46.837Z,100208.70
2022-12-16T16:04:44.804Z,100208.81
2022-12-16T16:07:43.452Z,100206.44
2022-12-16T16:10:37.514Z,100214.04
2022-12-16T16:13:25.130Z,100221.39
2022-12-16T16:16:12.809Z,100226.45
2022-12-16T16:19:01.309Z,100236.27
2022-12-16T16:21:49.663Z,100235.91
2022-12-16T16:24:36.698Z,100236.76
2022-12-16T16:27:30.443Z,100243.04
2022-12-16T16:30:18.096Z,100242.64
2022-12-16T16:33:05.162Z,100248.84
2022-12-16T16:35:52.956Z,100250.52
2022-12-16T16:38:40.120Z,100252.24
2022-12-16T16:41:34.737Z,100247.86
2022-12-16T16:44:22.400Z,100251.70
2022-12-16T16:47:09.358Z,100253.39
2022-12-16T16:50:00.885Z,100251.02
2022-12-16T16:52:48.673Z,100255.77
2022-12-16T16:55:38.818Z,100259.44
2022-12-16T16:58:32.119Z,100257.20
2022-12-16T17:01:21.011Z,100258.26
2022-12-16T17:04:08.486Z,100256.77
2022-12-16T17:06:56.036Z,100252.35
2022-12-16T17:09:43.299Z,100252.34
2022-12-16T17:12:50.036Z,100251.14
2022-12-16T17:15:41.480Z,100259.11
2022-12-16T17:18:29.558Z,100264.86
2022-12-16T17:21:16.896Z,100261.27
2022-12-16T17:24:04.052Z,100266.55
2022-12-16T17:26:51.348Z,100271.83
2022-12-16T17:29:42.658Z,100272.02
2022-12-16T17:32:29.960Z,100268.07
2022-12-16T17:35:17.384Z,100266.33
2022-12-16T17:38:04.593Z,100275.30
2022-12-16T17:40:51.661Z,100280.41
2022-12-16T17:43:38.949Z,100280.41
2022-12-16T17:46:29.703Z,100280.93
2022-12-16T17:49:17.808Z,100285.69
2022-12-16T17:52:05.136Z,100294.13
2022-12-16T17:54:52.331Z,100297.65
2022-12-16T17:57:39.505Z,100298.98
2022-12-16T18:00:27.682Z,100306.40
2022-12-16T18:03:14.937Z,100312.83
2022-12-16T18:06:02.759Z,100314.86
2022-12-16T18:08:51.546Z,100319.94
2022-12-16T18:11:39.423Z,100317.74
2022-12-16T18:14:26.449Z,100321.12
2022-12-16T18:17:13.538Z,100328.68
2022-12-16T18:20:00.541Z,100333.40
2022-12-16T18:22:48.190Z,100336.94
2022-12-16T18:25:35.207Z,100336.10
2022-12-16T18:28:23.605Z,100340.88
2022-12-16T18:31:10.673Z,100336.17
2022-12-16T18:33:58.424Z,100336.33
2022-12-16T18:36:45.769Z,100337.86
2022-12-16T18:39:33.043Z,100339.23
2022-12-16T18:42:20.748Z,100351.05
2022-12-16T18:45:09.861Z,100346.19
2022-12-16T18:47:57.818Z,100349.09
2022-12-16T18:50:59.640Z,100353.32
2022-12-16T18:53:48.000Z,100349.94
2022-12-16T18:56:37.233Z,100351.97
2022-12-16T18:59:25.556Z,100357.38
2022-12-16T19:02:13.144Z,100350.61
2022-12-16T19:05:01.437Z,100352.14
2022-12-16T19:07:49.771Z,100357.05
2022-12-16T19:10:38.722Z,100361.48
2022-12-16T19:13:26.749Z,100364.41
2022-12-16T19:16:15.962Z,100364.80
2022-12-16T19:19:03.808Z,100366.33
2022-12-16T19:21:56.333Z,100362.59
2022-12-16T19:24:44.408Z,100369.67
2022-12-16T19:27:32.442Z,100370.05
2022-12-16T19:30:20.503Z,100369.10
2022-12-16T19:33:08.380Z,100372.83
2022-12-16T19:35:57.300Z,100370.77
2022-12-16T19:38:44.461Z,100370.93
2022-12-16T19:41:36.273Z,100376.90
2022-12-16T19:44:23.760Z,100381.02
2022-12-16T19:47:12.355Z,100388.66
2022-12-16T19:49:59.748Z,100388.56
2022-12-16T19:52:47.525Z,100393.38
2022-12-16T19:55:34.836Z,100398.29
2022-12-16T19:58:24.240Z,100397.77
2022-12-16T20:01:14.614Z,100399.98
2022-12-16T20:04:02.187Z,100401.48
2022-12-16T20:06:50.317Z,100402.80
2022-12-16T20:09:38.051Z,100405.34
2022-12-16T20:12:26.083Z,100413.50
2022-12-16T20:15:14.936Z,100419.98
2022-12-16T20:18:05.417Z,100427.28
2022-12-16T20:20:54.339Z,100426.48
2022-12-16T20:23:43.228Z,100431.77
2022-12-16T20:26:31.857Z,100432.09
2022-12-16T20:29:19.579Z,100440.86
2022-12-16T20:32:08.127Z,100445.47
2022-12-16T20:34:57.831Z,100442.95
2022-12-16T20:37:45.531Z,100442.27
2022-12-16T20:40:33.968Z,100445.05
2022-12-16T20:43:21.108Z,100455.13
2022-12-16T20:46:08.850Z,100457.98
2022-12-16T20:48:57.752Z,100459.20
2022-12-16T20:51:45.046Z,100462.71
2022-12-16T20:54:32.229Z,100464.62
2022-12-16T20:57:19.558Z,100467.86
2022-12-16T21:00:06.857Z,100472.27
2022-12-16T21:02:54.116Z,100481.62
2022-12-16T21:05:43.994Z,100485.23
2022-12-16T21:08:31.730Z,100487.69
2022-12-16T21:11:19.379Z,100488.77
2022-12-16T21:14:07.362Z,100493.10
2022-12-16T21:16:54.550Z,100491.52
2022-12-16T21:19:44.173Z,100490.33
2022-12-16T21:22:35.567Z,100491.11
2022-12-16T21:25:24.963Z,100499.05
2022-12-16T21:28:18.815Z,100504.84
2022-12-16T21:31:07.169Z,100506.43
2022-12-16T21:33:53.925Z,100511.40
2022-12-16T21:36:42.600Z,100514.09
2022-12-16T21:39:29.724Z,100512.82
2022-12-16T21:42:16.650Z,100515.98
2022-12-16T21:45:03.688Z,100520.44
2022-12-16T21:47:50.865Z,100521.02
2022-12-16T21:50:39.101Z,100524.48
2022-12-16T21:53:26.200Z,100529.14
2022-12-16T21:56:14.742Z,100531.73
2022-12-16T21:59:02.749Z,100529.13
2022-12-16T22:01:50.059Z,100523.71
2022-12-16T22:04:37.114Z,100522.52
2022-12-16T22:07:24.725Z,100517.27
2022-12-16T22:10:12.161Z,100511.46
2022-12-16T22:12:59.181Z,100516.41
2022-12-16T22:15:46.467Z,100526.23
2022-12-16T22:18:35.971Z,100529.58
2022-12-16T22:21:25.228Z,100535.29
2022-12-16T22:24:12.713Z,100538.86
2022-12-16T22:27:00.180Z,100541.13
2022-12-16T22:29:47.471Z,100543.58
2022-12-16T22:32:34.846Z,100545.09
2022-12-16T22:35:21.631Z,100555.73
2022-12-16T22:38:08.636Z,100562.67
2022-12-16T22:40:56.688Z,100568.54
2022-12-16T22:43:50.917Z,100575.29
2022-12-16T22:46:39.077Z,100571.52
2022-12-16T22:49:26.005Z,100568.42
2022-12-16T22:52:13.228Z,100567.24
2022-12-16T22:55:00.988Z,100571.31
2022-12-16T22:57:50.880Z,100572.98
2022-12-16T23:00:41.495Z,100581.77
2022-12-16T23:03:35.394Z,100584.05
2022-12-16T23:06:22.578Z,100585.20
2022-12-16T23:09:09.793Z,100584.48
2022-12-16T23:11:59.129Z,100583.09
2022-12-16T23:14:46.551Z,100587.44
2022-12-16T23:17:33.711Z,100586.98
2022-12-16T23:20:20.891Z,100585.37
2022-12-16T23:23:07.788Z,100585.45
2022-12-16T23:25:55.135Z,100582.83
2022-12-16T23:29:02.719Z,100589.04
2022-12-16T23:31:49.945Z,100582.08
2022-12-16T23:34:42.271Z,100579.16
2022-12-16T23:37:33.580Z,100581.48
2022-12-16T23:40:20.997Z,100584.31
2022-12-16T23:43:08.392Z,100584.17
2022-12-16T23:45:56.283Z,100587.70
2022-12-16T23:48:43.517Z,100593.17
2022-12-16T23:51:30.745Z,100595.20
2022-12-16T23:54:17.636Z,100598.77
2022-12-16T23:57:04.540Z,100601.45
2022-12-16T23:59:52.842Z,100605.70
